Minador do Negrao, Brazil
Current Conditions -  °F | °C
As of 12:00 PM on Wednesday 26 Nov 2014 (Local Time) from SBMO Reporting Station
Scattered Clouds Scattered Clouds  
Wind Chill: 90°   Ceiling: Unl
Heat Index: 93°   Visibility: 6mi
Dew Point: 68°   Wind: 9mph
Humidity: 49%   Direction: 100°E
Pressure: 29.94"   Gusts: NA
Location:  9.31°S, 36.86°W
Report Text: SBMO 261500Z 10008KT 9999 SCT030 SCT070 32/20 Q1014
Loading
Personal Weather Stations






























Interactive Weather Map New forecast layout! Learn more

10-Day Weather Forecast

Advertisements
Track Severe Weather on mobile